sensor_id;sensor_type;location;lat;lon;timestamp;temperature;humidity
32877;DHT22;19226;51.600;8.034;2023-03-03T00:02:26;2.30;99.90
32877;DHT22;19226;51.600;8.034;2023-03-03T00:05:10;2.30;99.90
32877;DHT22;19226;51.600;8.034;2023-03-03T00:07:59;2.30;99.90
32877;DHT22;19226;51.600;8.034;2023-03-03T00:10:44;2.30;99.90
32877;DHT22;19226;51.600;8.034;2023-03-03T00:13:30;2.30;99.90
32877;DHT22;19226;51.600;8.034;2023-03-03T00:16:16;2.30;99.90
32877;DHT22;19226;51.600;8.034;2023-03-03T00:19:14;2.30;99.90
32877;DHT22;19226;51.600;8.034;2023-03-03T00:22:00;2.30;99.90
32877;DHT22;19226;51.600;8.034;2023-03-03T00:24:45;2.30;99.90
32877;DHT22;19226;51.600;8.034;2023-03-03T00:27:33;2.30;99.90
32877;DHT22;19226;51.600;8.034;2023-03-03T00:30:23;2.30;99.90
32877;DHT22;19226;51.600;8.034;2023-03-03T00:33:32;2.30;99.90
32877;DHT22;19226;51.600;8.034;2023-03-03T00:36:28;2.30;99.90
32877;DHT22;19226;51.600;8.034;2023-03-03T00:39:37;2.30;99.90
32877;DHT22;19226;51.600;8.034;2023-03-03T00:42:22;2.30;99.90
32877;DHT22;19226;51.600;8.034;2023-03-03T00:45:38;2.30;99.90
32877;DHT22;19226;51.600;8.034;2023-03-03T00:51:31;2.30;99.90
32877;DHT22;19226;51.600;8.034;2023-03-03T00:54:17;2.30;99.90
32877;DHT22;19226;51.600;8.034;2023-03-03T00:57:02;2.30;99.90
32877;DHT22;19226;51.600;8.034;2023-03-03T00:59:46;2.30;99.90
32877;DHT22;19226;51.600;8.034;2023-03-03T01:02:31;2.30;99.90
32877;DHT22;19226;51.600;8.034;2023-03-03T01:05:16;2.30;99.90
32877;DHT22;19226;51.600;8.034;2023-03-03T01:08:02;2.30;99.90
32877;DHT22;19226;51.600;8.034;2023-03-03T01:10:49;2.30;99.90
32877;DHT22;19226;51.600;8.034;2023-03-03T01:13:35;2.30;99.90
32877;DHT22;19226;51.600;8.034;2023-03-03T01:16:20;2.40;99.90
32877;DHT22;19226;51.600;8.034;2023-03-03T01:19:05;2.40;99.90
32877;DHT22;19226;51.600;8.034;2023-03-03T01:21:50;2.30;99.90
32877;DHT22;19226;51.600;8.034;2023-03-03T01:24:34;2.30;99.90
32877;DHT22;19226;51.600;8.034;2023-03-03T01:27:19;2.30;99.90
32877;DHT22;19226;51.600;8.034;2023-03-03T01:30:07;2.30;99.90
32877;DHT22;19226;51.600;8.034;2023-03-03T01:32:52;2.30;99.90
32877;DHT22;19226;51.600;8.034;2023-03-03T01:35:36;2.30;99.90
32877;DHT22;19226;51.600;8.034;2023-03-03T01:38:21;2.20;99.90
32877;DHT22;19226;51.600;8.034;2023-03-03T01:41:06;2.30;99.90
32877;DHT22;19226;51.600;8.034;2023-03-03T01:43:50;2.30;99.90
32877;DHT22;19226;51.600;8.034;2023-03-03T01:49:35;2.20;99.90
32877;DHT22;19226;51.600;8.034;2023-03-03T01:52:34;2.20;99.90
32877;DHT22;19226;51.600;8.034;2023-03-03T01:55:22;2.20;99.90
32877;DHT22;19226;51.600;8.034;2023-03-03T01:58:19;2.20;99.90
32877;DHT22;19226;51.600;8.034;2023-03-03T02:01:07;2.20;99.90
32877;DHT22;19226;51.600;8.034;2023-03-03T02:03:52;2.20;99.90
32877;DHT22;19226;51.600;8.034;2023-03-03T02:06:40;2.20;99.90
32877;DHT22;19226;51.600;8.034;2023-03-03T02:10:03;2.20;99.90
32877;DHT22;19226;51.600;8.034;2023-03-03T02:12:52;2.20;99.90
32877;DHT22;19226;51.600;8.034;2023-03-03T02:15:37;2.10;99.90
32877;DHT22;19226;51.600;8.034;2023-03-03T02:18:21;2.10;99.90
32877;DHT22;19226;51.600;8.034;2023-03-03T02:21:19;2.10;99.90
32877;DHT22;19226;51.600;8.034;2023-03-03T02:27:00;2.20;99.90
32877;DHT22;19226;51.600;8.034;2023-03-03T02:29:46;2.20;99.90
32877;DHT22;19226;51.600;8.034;2023-03-03T02:32:31;2.20;99.90
32877;DHT22;19226;51.600;8.034;2023-03-03T02:35:36;2.20;99.90
32877;DHT22;19226;51.600;8.034;2023-03-03T02:38:31;2.20;99.90
32877;DHT22;19226;51.600;8.034;2023-03-03T02:44:21;2.20;99.90
32877;DHT22;19226;51.600;8.034;2023-03-03T02:47:06;2.20;99.90
32877;DHT22;19226;51.600;8.034;2023-03-03T02:49:51;2.20;99.90
32877;DHT22;19226;51.600;8.034;2023-03-03T02:52:36;2.20;99.90
32877;DHT22;19226;51.600;8.034;2023-03-03T02:55:21;2.20;99.90
32877;DHT22;19226;51.600;8.034;2023-03-03T02:58:05;2.20;99.90
32877;DHT22;19226;51.600;8.034;2023-03-03T03:00:50;2.20;99.90
32877;DHT22;19226;51.600;8.034;2023-03-03T03:03:39;2.20;99.90
32877;DHT22;19226;51.600;8.034;2023-03-03T03:06:24;2.10;99.90
32877;DHT22;19226;51.600;8.034;2023-03-03T03:09:10;2.10;99.90
32877;DHT22;19226;51.600;8.034;2023-03-03T03:11:54;2.10;99.90
32877;DHT22;19226;51.600;8.034;2023-03-03T03:14:42;2.10;99.90
32877;DHT22;19226;51.600;8.034;2023-03-03T03:17:27;2.00;99.90
32877;DHT22;19226;51.600;8.034;2023-03-03T03:20:12;2.00;99.90
32877;DHT22;19226;51.600;8.034;2023-03-03T03:22:57;2.00;99.90
32877;DHT22;19226;51.600;8.034;2023-03-03T03:25:41;2.00;99.90
32877;DHT22;19226;51.600;8.034;2023-03-03T03:28:32;2.00;99.90
32877;DHT22;19226;51.600;8.034;2023-03-03T03:31:18;2.00;99.90
32877;DHT22;19226;51.600;8.034;2023-03-03T03:34:03;2.00;99.90
32877;DHT22;19226;51.600;8.034;2023-03-03T03:36:48;2.00;99.90
32877;DHT22;19226;51.600;8.034;2023-03-03T03:39:35;2.10;99.90
32877;DHT22;19226;51.600;8.034;2023-03-03T03:42:20;2.00;99.90
32877;DHT22;19226;51.600;8.034;2023-03-03T03:45:06;2.10;99.90
32877;DHT22;19226;51.600;8.034;2023-03-03T03:47:50;2.10;99.90
32877;DHT22;19226;51.600;8.034;2023-03-03T03:50:35;2.10;99.90
32877;DHT22;19226;51.600;8.034;2023-03-03T03:53:21;2.20;99.90
32877;DHT22;19226;51.600;8.034;2023-03-03T03:56:06;2.20;99.90
32877;DHT22;19226;51.600;8.034;2023-03-03T03:58:51;2.20;99.90
32877;DHT22;19226;51.600;8.034;2023-03-03T04:01:36;2.20;99.90
32877;DHT22;19226;51.600;8.034;2023-03-03T04:04:21;2.20;99.90
32877;DHT22;19226;51.600;8.034;2023-03-03T04:07:06;2.20;99.90
32877;DHT22;19226;51.600;8.034;2023-03-03T04:09:51;2.20;99.90
32877;DHT22;19226;51.600;8.034;2023-03-03T04:12:36;2.20;99.90
32877;DHT22;19226;51.600;8.034;2023-03-03T04:15:27;2.20;99.90
32877;DHT22;19226;51.600;8.034;2023-03-03T04:18:12;2.20;99.90
32877;DHT22;19226;51.600;8.034;2023-03-03T04:20:57;2.20;99.90
32877;DHT22;19226;51.600;8.034;2023-03-03T04:23:43;2.20;99.90
32877;DHT22;19226;51.600;8.034;2023-03-03T04:26:28;2.20;99.90
32877;DHT22;19226;51.600;8.034;2023-03-03T04:29:12;2.20;99.90
32877;DHT22;19226;51.600;8.034;2023-03-03T04:31:59;2.30;99.90
32877;DHT22;19226;51.600;8.034;2023-03-03T04:34:43;2.20;99.90
32877;DHT22;19226;51.600;8.034;2023-03-03T04:37:28;2.20;99.90
32877;DHT22;19226;51.600;8.034;2023-03-03T04:40:14;2.20;99.90
32877;DHT22;19226;51.600;8.034;2023-03-03T04:43:00;2.20;99.90
32877;DHT22;19226;51.600;8.034;2023-03-03T04:45:45;2.20;99.90
32877;DHT22;19226;51.600;8.034;2023-03-03T04:48:29;2.20;99.90
32877;DHT22;19226;51.600;8.034;2023-03-03T04:51:14;2.20;99.90
32877;DHT22;19226;51.600;8.034;2023-03-03T04:54:00;2.20;99.90
32877;DHT22;19226;51.600;8.034;2023-03-03T04:56:44;2.20;99.90
32877;DHT22;19226;51.600;8.034;2023-03-03T04:59:30;2.30;99.90
32877;DHT22;19226;51.600;8.034;2023-03-03T05:02:14;2.20;99.90
32877;DHT22;19226;51.600;8.034;2023-03-03T05:04:59;2.30;99.90
32877;DHT22;19226;51.600;8.034;2023-03-03T05:07:43;2.40;99.90
32877;DHT22;19226;51.600;8.034;2023-03-03T05:10:28;2.30;99.90
32877;DHT22;19226;51.600;8.034;2023-03-03T05:13:12;2.30;99.90
32877;DHT22;19226;51.600;8.034;2023-03-03T05:15:58;2.30;99.90
32877;DHT22;19226;51.600;8.034;2023-03-03T05:18:43;2.30;99.90
32877;DHT22;19226;51.600;8.034;2023-03-03T05:21:28;2.30;99.90
32877;DHT22;19226;51.600;8.034;2023-03-03T05:24:13;2.30;99.90
32877;DHT22;19226;51.600;8.034;2023-03-03T05:26:57;2.30;99.90
32877;DHT22;19226;51.600;8.034;2023-03-03T05:29:42;2.30;99.90
32877;DHT22;19226;51.600;8.034;2023-03-03T05:32:27;2.30;99.90
32877;DHT22;19226;51.600;8.034;2023-03-03T05:35:11;2.30;99.90
32877;DHT22;19226;51.600;8.034;2023-03-03T05:37:56;2.30;99.90
32877;DHT22;19226;51.600;8.034;2023-03-03T05:40:41;2.30;99.90
32877;DHT22;19226;51.600;8.034;2023-03-03T05:43:27;2.30;99.90
32877;DHT22;19226;51.600;8.034;2023-03-03T05:46:12;2.30;99.90
32877;DHT22;19226;51.600;8.034;2023-03-03T05:48:57;2.30;99.90
32877;DHT22;19226;51.600;8.034;2023-03-03T05:51:42;2.30;99.90
32877;DHT22;19226;51.600;8.034;2023-03-03T05:54:26;2.30;99.90
32877;DHT22;19226;51.600;8.034;2023-03-03T05:57:11;2.30;99.90
32877;DHT22;19226;51.600;8.034;2023-03-03T05:59:55;2.30;99.90
32877;DHT22;19226;51.600;8.034;2023-03-03T06:02:40;2.30;99.90
32877;DHT22;19226;51.600;8.034;2023-03-03T06:05:25;2.20;99.90
32877;DHT22;19226;51.600;8.034;2023-03-03T06:08:09;2.30;99.90
32877;DHT22;19226;51.600;8.034;2023-03-03T06:10:54;2.30;99.90
32877;DHT22;19226;51.600;8.034;2023-03-03T06:13:39;2.30;99.90
32877;DHT22;19226;51.600;8.034;2023-03-03T06:16:25;2.20;99.90
32877;DHT22;19226;51.600;8.034;2023-03-03T06:19:10;2.20;99.90
32877;DHT22;19226;51.600;8.034;2023-03-03T06:21:54;2.20;99.90
32877;DHT22;19226;51.600;8.034;2023-03-03T06:24:39;2.30;99.90
32877;DHT22;19226;51.600;8.034;2023-03-03T06:27:24;2.30;99.90
32877;DHT22;19226;51.600;8.034;2023-03-03T06:30:09;2.20;99.90
32877;DHT22;19226;51.600;8.034;2023-03-03T06:32:53;2.30;99.90
32877;DHT22;19226;51.600;8.034;2023-03-03T06:35:38;2.30;99.90
32877;DHT22;19226;51.600;8.034;2023-03-03T06:38:23;2.30;99.90
32877;DHT22;19226;51.600;8.034;2023-03-03T06:41:07;2.30;99.90
32877;DHT22;19226;51.600;8.034;2023-03-03T06:43:52;2.30;99.90
32877;DHT22;19226;51.600;8.034;2023-03-03T06:46:37;2.30;99.90
32877;DHT22;19226;51.600;8.034;2023-03-03T06:49:21;2.30;99.90
32877;DHT22;19226;51.600;8.034;2023-03-03T06:52:16;2.30;99.90
32877;DHT22;19226;51.600;8.034;2023-03-03T06:55:15;2.30;99.90
32877;DHT22;19226;51.600;8.034;2023-03-03T06:58:10;2.20;99.90
32877;DHT22;19226;51.600;8.034;2023-03-03T07:00:58;2.20;99.90
32877;DHT22;19226;51.600;8.034;2023-03-03T07:03:43;2.30;99.90
32877;DHT22;19226;51.600;8.034;2023-03-03T07:06:29;2.30;99.90
32877;DHT22;19226;51.600;8.034;2023-03-03T07:09:21;2.40;99.90
32877;DHT22;19226;51.600;8.034;2023-03-03T07:12:18;2.30;99.90
32877;DHT22;19226;51.600;8.034;2023-03-03T07:15:19;2.40;99.90
32877;DHT22;19226;51.600;8.034;2023-03-03T07:18:24;2.40;99.90
32877;DHT22;19226;51.600;8.034;2023-03-03T07:21:27;2.40;99.90
32877;DHT22;19226;51.600;8.034;2023-03-03T07:24:30;2.40;99.90
32877;DHT22;19226;51.600;8.034;2023-03-03T07:32:59;2.40;99.90
32877;DHT22;19226;51.600;8.034;2023-03-03T07:35:44;2.40;99.90
32877;DHT22;19226;51.600;8.034;2023-03-03T07:38:50;2.40;99.90
32877;DHT22;19226;51.600;8.034;2023-03-03T07:41:36;2.40;99.90
32877;DHT22;19226;51.600;8.034;2023-03-03T07:44:29;2.40;99.90
32877;DHT22;19226;51.600;8.034;2023-03-03T07:50:18;2.40;99.90
32877;DHT22;19226;51.600;8.034;2023-03-03T07:53:14;2.50;99.90
32877;DHT22;19226;51.600;8.034;2023-03-03T07:56:09;2.50;99.90
32877;DHT22;19226;51.600;8.034;2023-03-03T07:58:59;2.50;99.90
32877;DHT22;19226;51.600;8.034;2023-03-03T08:01:46;2.50;99.90
32877;DHT22;19226;51.600;8.034;2023-03-03T08:04:40;2.60;99.90
32877;DHT22;19226;51.600;8.034;2023-03-03T08:07:27;2.50;99.90
32877;DHT22;19226;51.600;8.034;2023-03-03T08:10:47;2.60;99.90
32877;DHT22;19226;51.600;8.034;2023-03-03T08:13:36;2.60;99.90
32877;DHT22;19226;51.600;8.034;2023-03-03T08:16:42;2.60;99.90
32877;DHT22;19226;51.600;8.034;2023-03-03T08:19:27;2.60;99.90
32877;DHT22;19226;51.600;8.034;2023-03-03T08:22:39;2.60;99.90
32877;DHT22;19226;51.600;8.034;2023-03-03T08:25:23;2.70;99.90
32877;DHT22;19226;51.600;8.034;2023-03-03T08:28:10;2.70;99.90
32877;DHT22;19226;51.600;8.034;2023-03-03T08:30:56;2.70;99.90
32877;DHT22;19226;51.600;8.034;2023-03-03T08:33:40;2.70;99.90
32877;DHT22;19226;51.600;8.034;2023-03-03T08:36:25;2.60;99.90
32877;DHT22;19226;51.600;8.034;2023-03-03T08:39:09;2.60;99.90
32877;DHT22;19226;51.600;8.034;2023-03-03T08:41:54;2.70;99.90
32877;DHT22;19226;51.600;8.034;2023-03-03T08:44:38;2.70;99.90
32877;DHT22;19226;51.600;8.034;2023-03-03T08:47:23;2.60;99.90
32877;DHT22;19226;51.600;8.034;2023-03-03T08:50:07;2.70;99.90
32877;DHT22;19226;51.600;8.034;2023-03-03T08:52:52;2.80;99.90
32877;DHT22;19226;51.600;8.034;2023-03-03T08:55:37;2.80;99.90
32877;DHT22;19226;51.600;8.034;2023-03-03T08:58:22;2.80;99.90
32877;DHT22;19226;51.600;8.034;2023-03-03T09:01:07;2.80;99.90
32877;DHT22;19226;51.600;8.034;2023-03-03T09:03:51;2.80;99.90
32877;DHT22;19226;51.600;8.034;2023-03-03T09:06:36;2.90;99.90
32877;DHT22;19226;51.600;8.034;2023-03-03T09:09:21;2.90;99.90
32877;DHT22;19226;51.600;8.034;2023-03-03T09:12:17;2.90;99.90
32877;DHT22;19226;51.600;8.034;2023-03-03T09:20:57;2.90;99.90
32877;DHT22;19226;51.600;8.034;2023-03-03T09:23:42;3.00;99.90
32877;DHT22;19226;51.600;8.034;2023-03-03T09:29:44;2.90;99.90
32877;DHT22;19226;51.600;8.034;2023-03-03T09:32:38;2.90;99.90
32877;DHT22;19226;51.600;8.034;2023-03-03T09:38:28;3.10;99.90
32877;DHT22;19226;51.600;8.034;2023-03-03T09:41:42;3.20;99.90
32877;DHT22;19226;51.600;8.034;2023-03-03T09:54:21;3.10;99.90
32877;DHT22;19226;51.600;8.034;2023-03-03T09:57:16;3.10;99.90
32877;DHT22;19226;51.600;8.034;2023-03-03T10:00:13;3.10;99.90
32877;DHT22;19226;51.600;8.034;2023-03-03T10:06:24;3.20;99.90
32877;DHT22;19226;51.600;8.034;2023-03-03T10:09:31;3.20;99.90
32877;DHT22;19226;51.600;8.034;2023-03-03T10:30:36;3.50;99.90
32877;DHT22;19226;51.600;8.034;2023-03-03T10:36:58;3.60;99.90
32877;DHT22;19226;51.600;8.034;2023-03-03T10:39:57;3.50;99.90
32877;DHT22;19226;51.600;8.034;2023-03-03T10:49:25;3.60;99.90
32877;DHT22;19226;51.600;8.034;2023-03-03T10:55:37;3.70;99.90
32877;DHT22;19226;51.600;8.034;2023-03-03T10:58:44;3.70;99.90
32877;DHT22;19226;51.600;8.034;2023-03-03T11:04:39;3.80;99.90
32877;DHT22;19226;51.600;8.034;2023-03-03T11:11:06;3.90;99.90
32877;DHT22;19226;51.600;8.034;2023-03-03T11:14:29;3.80;99.90
32877;DHT22;19226;51.600;8.034;2023-03-03T11:26:45;4.10;99.90
32877;DHT22;19226;51.600;8.034;2023-03-03T11:35:30;4.20;99.90
32877;DHT22;19226;51.600;8.034;2023-03-03T11:44:39;4.30;99.90
32877;DHT22;19226;51.600;8.034;2023-03-03T11:50:22;4.40;99.90
32877;DHT22;19226;51.600;8.034;2023-03-03T11:56:33;4.60;99.90
32877;DHT22;19226;51.600;8.034;2023-03-03T11:59:42;4.60;99.90
32877;DHT22;19226;51.600;8.034;2023-03-03T12:02:30;4.70;99.90
32877;DHT22;19226;51.600;8.034;2023-03-03T12:08:35;4.70;99.90
32877;DHT22;19226;51.600;8.034;2023-03-03T12:11:27;4.70;99.90
32877;DHT22;19226;51.600;8.034;2023-03-03T12:30:30;5.10;99.90
32877;DHT22;19226;51.600;8.034;2023-03-03T12:40:31;5.20;99.90
32877;DHT22;19226;51.600;8.034;2023-03-03T12:43:12;5.20;99.90
32877;DHT22;19226;51.600;8.034;2023-03-03T12:46:06;5.30;99.90
32877;DHT22;19226;51.600;8.034;2023-03-03T12:48:54;5.30;99.90
32877;DHT22;19226;51.600;8.034;2023-03-03T12:51:53;5.40;99.90
32877;DHT22;19226;51.600;8.034;2023-03-03T13:01:43;5.50;99.90
32877;DHT22;19226;51.600;8.034;2023-03-03T13:04:40;5.50;99.90
32877;DHT22;19226;51.600;8.034;2023-03-03T13:07:31;5.60;99.90
32877;DHT22;19226;51.600;8.034;2023-03-03T13:13:56;5.70;99.90
32877;DHT22;19226;51.600;8.034;2023-03-03T13:16:51;5.70;99.90
32877;DHT22;19226;51.600;8.034;2023-03-03T13:23:45;5.80;99.90
32877;DHT22;19226;51.600;8.034;2023-03-03T13:26:48;5.80;99.90
32877;DHT22;19226;51.600;8.034;2023-03-03T13:29:42;5.80;99.90
32877;DHT22;19226;51.600;8.034;2023-03-03T13:32:37;5.90;99.90
32877;DHT22;19226;51.600;8.034;2023-03-03T13:35:44;5.80;99.90
32877;DHT22;19226;51.600;8.034;2023-03-03T13:38:40;5.80;99.90
32877;DHT22;19226;51.600;8.034;2023-03-03T13:41:34;5.90;99.90
32877;DHT22;19226;51.600;8.034;2023-03-03T13:44:33;5.90;99.90
32877;DHT22;19226;51.600;8.034;2023-03-03T14:05:28;6.30;99.90
32877;DHT22;19226;51.600;8.034;2023-03-03T14:08:19;6.30;99.90
32877;DHT22;19226;51.600;8.034;2023-03-03T14:20:14;6.30;99.90
32877;DHT22;19226;51.600;8.034;2023-03-03T14:23:09;6.40;99.90
32877;DHT22;19226;51.600;8.034;2023-03-03T14:28:48;6.40;99.90
32877;DHT22;19226;51.600;8.034;2023-03-03T14:31:39;6.40;99.90
32877;DHT22;19226;51.600;8.034;2023-03-03T14:34:37;6.50;99.90
32877;DHT22;19226;51.600;8.034;2023-03-03T14:37:26;6.40;99.90
32877;DHT22;19226;51.600;8.034;2023-03-03T14:40:20;6.50;99.90
32877;DHT22;19226;51.600;8.034;2023-03-03T14:43:19;6.60;99.90
32877;DHT22;19226;51.600;8.034;2023-03-03T14:46:31;6.70;99.90
32877;DHT22;19226;51.600;8.034;2023-03-03T14:49:32;6.80;99.90
32877;DHT22;19226;51.600;8.034;2023-03-03T14:52:23;6.80;99.90
32877;DHT22;19226;51.600;8.034;2023-03-03T14:55:38;6.90;99.90
32877;DHT22;19226;51.600;8.034;2023-03-03T14:58:30;7.00;99.90
32877;DHT22;19226;51.600;8.034;2023-03-03T15:04:24;7.10;99.90
32877;DHT22;19226;51.600;8.034;2023-03-03T15:07:34;7.20;99.90
32877;DHT22;19226;51.600;8.034;2023-03-03T15:16:21;7.20;99.90
32877;DHT22;19226;51.600;8.034;2023-03-03T15:19:39;7.20;99.90
32877;DHT22;19226;51.600;8.034;2023-03-03T15:22:36;7.10;99.90
32877;DHT22;19226;51.600;8.034;2023-03-03T15:31:41;7.00;99.90
32877;DHT22;19226;51.600;8.034;2023-03-03T15:34:38;7.00;99.90
32877;DHT22;19226;51.600;8.034;2023-03-03T15:37:46;7.00;99.90
32877;DHT22;19226;51.600;8.034;2023-03-03T15:40:48;6.90;99.90
32877;DHT22;19226;51.600;8.034;2023-03-03T15:55:34;7.00;99.90
32877;DHT22;19226;51.600;8.034;2023-03-03T16:02:21;7.00;99.90
32877;DHT22;19226;51.600;8.034;2023-03-03T16:05:21;6.90;99.90
32877;DHT22;19226;51.600;8.034;2023-03-03T16:08:21;6.80;99.90
32877;DHT22;19226;51.600;8.034;2023-03-03T16:11:17;6.70;99.90
32877;DHT22;19226;51.600;8.034;2023-03-03T16:17:25;6.60;99.90
32877;DHT22;19226;51.600;8.034;2023-03-03T16:26:45;6.50;99.90
32877;DHT22;19226;51.600;8.034;2023-03-03T16:30:17;6.50;99.90
32877;DHT22;19226;51.600;8.034;2023-03-03T16:33:36;6.50;99.90
32877;DHT22;19226;51.600;8.034;2023-03-03T16:39:53;6.40;99.90
32877;DHT22;19226;51.600;8.034;2023-03-03T16:42:39;6.40;99.90
32877;DHT22;19226;51.600;8.034;2023-03-03T16:45:34;6.30;99.90
32877;DHT22;19226;51.600;8.034;2023-03-03T16:51:40;6.20;99.90
32877;DHT22;19226;51.600;8.034;2023-03-03T16:54:43;6.20;99.90
32877;DHT22;19226;51.600;8.034;2023-03-03T17:00:51;6.00;99.90
32877;DHT22;19226;51.600;8.034;2023-03-03T17:03:39;6.00;99.90
32877;DHT22;19226;51.600;8.034;2023-03-03T17:06:52;5.90;99.90
32877;DHT22;19226;51.600;8.034;2023-03-03T17:09:54;5.90;99.90
32877;DHT22;19226;51.600;8.034;2023-03-03T17:15:56;5.60;99.90
32877;DHT22;19226;51.600;8.034;2023-03-03T17:25:08;5.20;99.90
32877;DHT22;19226;51.600;8.034;2023-03-03T17:28:15;5.10;99.90
32877;DHT22;19226;51.600;8.034;2023-03-03T17:34:40;4.90;99.90
32877;DHT22;19226;51.600;8.034;2023-03-03T17:40:53;4.70;99.90
32877;DHT22;19226;51.600;8.034;2023-03-03T17:46:38;4.60;99.90
32877;DHT22;19226;51.600;8.034;2023-03-03T17:49:39;4.50;99.90
32877;DHT22;19226;51.600;8.034;2023-03-03T17:52:46;4.50;99.90
32877;DHT22;19226;51.600;8.034;2023-03-03T18:14:27;3.90;99.90
32877;DHT22;19226;51.600;8.034;2023-03-03T18:17:42;3.90;99.90
32877;DHT22;19226;51.600;8.034;2023-03-03T18:29:22;3.60;99.90
32877;DHT22;19226;51.600;8.034;2023-03-03T18:32:18;3.60;99.90
32877;DHT22;19226;51.600;8.034;2023-03-03T18:38:31;3.60;99.90
32877;DHT22;19226;51.600;8.034;2023-03-03T18:44:44;3.40;99.90
32877;DHT22;19226;51.600;8.034;2023-03-03T18:50:49;3.20;99.90
32877;DHT22;19226;51.600;8.034;2023-03-03T18:53:34;3.10;99.90
32877;DHT22;19226;51.600;8.034;2023-03-03T18:56:46;3.00;99.90
32877;DHT22;19226;51.600;8.034;2023-03-03T18:59:54;3.00;99.90
32877;DHT22;19226;51.600;8.034;2023-03-03T19:02:50;2.90;99.90
32877;DHT22;19226;51.600;8.034;2023-03-03T19:05:48;2.80;99.90
32877;DHT22;19226;51.600;8.034;2023-03-03T19:08:54;2.80;99.90
32877;DHT22;19226;51.600;8.034;2023-03-03T19:11:55;2.70;99.90
32877;DHT22;19226;51.600;8.034;2023-03-03T19:14:45;2.70;99.90
32877;DHT22;19226;51.600;8.034;2023-03-03T19:20:22;2.70;99.90
32877;DHT22;19226;51.600;8.034;2023-03-03T19:23:15;2.80;99.90
32877;DHT22;19226;51.600;8.034;2023-03-03T19:32:34;2.80;99.90
32877;DHT22;19226;51.600;8.034;2023-03-03T19:54:21;2.80;99.90
32877;DHT22;19226;51.600;8.034;2023-03-03T20:00:49;2.90;99.90
32877;DHT22;19226;51.600;8.034;2023-03-03T20:06:58;2.90;99.90
32877;DHT22;19226;51.600;8.034;2023-03-03T20:16:20;2.90;99.90
32877;DHT22;19226;51.600;8.034;2023-03-03T20:19:41;3.00;99.90
32877;DHT22;19226;51.600;8.034;2023-03-03T20:28:55;3.10;99.90
32877;DHT22;19226;51.600;8.034;2023-03-03T20:31:53;3.10;99.90
32877;DHT22;19226;51.600;8.034;2023-03-03T20:46:54;3.20;99.90
32877;DHT22;19226;51.600;8.034;2023-03-03T20:55:58;3.20;99.90
32877;DHT22;19226;51.600;8.034;2023-03-03T21:02:06;3.20;99.90
32877;DHT22;19226;51.600;8.034;2023-03-03T21:07:59;3.20;99.90
32877;DHT22;19226;51.600;8.034;2023-03-03T21:10:55;3.20;99.90
32877;DHT22;19226;51.600;8.034;2023-03-03T21:13:42;3.30;99.90
32877;DHT22;19226;51.600;8.034;2023-03-03T21:16:30;3.30;99.90
32877;DHT22;19226;51.600;8.034;2023-03-03T21:22:11;3.40;99.90
32877;DHT22;19226;51.600;8.034;2023-03-03T21:24:56;3.30;99.90
32877;DHT22;19226;51.600;8.034;2023-03-03T21:27:44;3.30;99.90
32877;DHT22;19226;51.600;8.034;2023-03-03T21:30:28;3.30;99.90
32877;DHT22;19226;51.600;8.034;2023-03-03T21:33:49;3.40;99.90
32877;DHT22;19226;51.600;8.034;2023-03-03T21:39:45;3.40;99.90
32877;DHT22;19226;51.600;8.034;2023-03-03T21:42:41;3.50;99.90
32877;DHT22;19226;51.600;8.034;2023-03-03T21:45:26;3.50;99.90
32877;DHT22;19226;51.600;8.034;2023-03-03T21:48:10;3.50;99.90
32877;DHT22;19226;51.600;8.034;2023-03-03T21:50:55;3.50;99.90
32877;DHT22;19226;51.600;8.034;2023-03-03T21:53:43;3.50;99.90
32877;DHT22;19226;51.600;8.034;2023-03-03T21:56:28;3.60;99.90
32877;DHT22;19226;51.600;8.034;2023-03-03T21:59:13;3.60;99.90
32877;DHT22;19226;51.600;8.034;2023-03-03T22:01:57;3.50;99.90
32877;DHT22;19226;51.600;8.034;2023-03-03T22:04:41;3.60;99.90
32877;DHT22;19226;51.600;8.034;2023-03-03T22:07:26;3.60;99.90
32877;DHT22;19226;51.600;8.034;2023-03-03T22:10:11;3.60;99.90
32877;DHT22;19226;51.600;8.034;2023-03-03T22:12:56;3.70;99.90
32877;DHT22;19226;51.600;8.034;2023-03-03T22:15:40;3.70;99.90
32877;DHT22;19226;51.600;8.034;2023-03-03T22:18:25;3.70;99.90
32877;DHT22;19226;51.600;8.034;2023-03-03T22:21:09;3.70;99.90
32877;DHT22;19226;51.600;8.034;2023-03-03T22:23:54;3.70;99.90
32877;DHT22;19226;51.600;8.034;2023-03-03T22:26:38;3.70;99.90
32877;DHT22;19226;51.600;8.034;2023-03-03T22:29:23;3.80;99.90
32877;DHT22;19226;51.600;8.034;2023-03-03T22:32:08;3.80;99.90
32877;DHT22;19226;51.600;8.034;2023-03-03T22:34:52;3.80;99.90
32877;DHT22;19226;51.600;8.034;2023-03-03T22:37:37;3.80;99.90
32877;DHT22;19226;51.600;8.034;2023-03-03T22:40:22;3.80;99.90
32877;DHT22;19226;51.600;8.034;2023-03-03T22:43:06;3.80;99.90
32877;DHT22;19226;51.600;8.034;2023-03-03T22:45:51;3.80;99.90
32877;DHT22;19226;51.600;8.034;2023-03-03T22:48:36;3.90;99.90
32877;DHT22;19226;51.600;8.034;2023-03-03T22:51:21;3.90;99.90
32877;DHT22;19226;51.600;8.034;2023-03-03T22:54:05;3.90;99.90
32877;DHT22;19226;51.600;8.034;2023-03-03T22:56:50;3.80;99.90
32877;DHT22;19226;51.600;8.034;2023-03-03T22:59:34;3.90;99.90
32877;DHT22;19226;51.600;8.034;2023-03-03T23:02:19;3.90;99.90
32877;DHT22;19226;51.600;8.034;2023-03-03T23:05:04;3.80;99.90
32877;DHT22;19226;51.600;8.034;2023-03-03T23:07:51;3.90;99.90
32877;DHT22;19226;51.600;8.034;2023-03-03T23:10:36;3.90;99.90
32877;DHT22;19226;51.600;8.034;2023-03-03T23:13:21;3.90;99.90
32877;DHT22;19226;51.600;8.034;2023-03-03T23:16:07;3.90;99.90
32877;DHT22;19226;51.600;8.034;2023-03-03T23:18:52;3.90;99.90
32877;DHT22;19226;51.600;8.034;2023-03-03T23:21:36;4.00;99.90
32877;DHT22;19226;51.600;8.034;2023-03-03T23:24:21;4.00;99.90
32877;DHT22;19226;51.600;8.034;2023-03-03T23:27:06;4.00;99.90
32877;DHT22;19226;51.600;8.034;2023-03-03T23:29:51;4.10;99.90
32877;DHT22;19226;51.600;8.034;2023-03-03T23:32:35;4.00;99.90
32877;DHT22;19226;51.600;8.034;2023-03-03T23:35:20;4.00;99.90
32877;DHT22;19226;51.600;8.034;2023-03-03T23:38:05;4.00;99.90
32877;DHT22;19226;51.600;8.034;2023-03-03T23:40:49;4.10;99.90
32877;DHT22;19226;51.600;8.034;2023-03-03T23:43:34;4.10;99.90
32877;DHT22;19226;51.600;8.034;2023-03-03T23:46:18;4.10;99.90
32877;DHT22;19226;51.600;8.034;2023-03-03T23:49:03;4.10;99.90
32877;DHT22;19226;51.600;8.034;2023-03-03T23:51:47;4.10;99.90
32877;DHT22;19226;51.600;8.034;2023-03-03T23:54:32;4.20;99.90
32877;DHT22;19226;51.600;8.034;2023-03-03T23:57:17;4.20;99.90
